createdAt,value
2018-02-11T00:00:22.722Z,62.50
2018-02-11T00:02:50.263Z,62.70
2018-02-11T00:05:17.911Z,62.60
2018-02-11T00:07:46.242Z,62.70
2018-02-11T00:10:13.791Z,62.70
2018-02-11T00:12:41.432Z,62.70
2018-02-11T00:15:08.988Z,62.70
2018-02-11T00:17:37.297Z,62.80
2018-02-11T00:20:04.859Z,62.70
2018-02-11T00:22:32.419Z,62.80
2018-02-11T00:24:59.970Z,62.70
2018-02-11T00:27:28.295Z,62.80
2018-02-11T00:29:55.852Z,62.80
2018-02-11T00:32:23.435Z,62.80
2018-02-11T00:34:50.989Z,62.80
2018-02-11T00:37:24.288Z,62.80
2018-02-11T00:39:51.813Z,62.90
2018-02-11T00:42:20.405Z,62.80
2018-02-11T00:44:48.734Z,62.90
2018-02-11T00:47:16.282Z,62.90
2018-02-11T00:49:43.848Z,62.90
2018-02-11T00:52:11.394Z,62.90
2018-02-11T00:54:38.939Z,63.00
2018-02-11T00:57:07.246Z,63.00
2018-02-11T00:59:34.805Z,63.00
2018-02-11T01:02:02.405Z,63.00
2018-02-11T01:04:29.947Z,63.20
2018-02-11T01:06:57.508Z,63.20
2018-02-11T01:09:25.061Z,63.20
2018-02-11T01:11:53.435Z,63.20
2018-02-11T01:14:21.511Z,63.20
2018-02-11T01:16:49.899Z,63.20
2018-02-11T01:19:17.465Z,63.10
2018-02-11T01:21:45.776Z,63.10
2018-02-11T01:24:13.336Z,63.10
2018-02-11T01:26:40.917Z,63.20
2018-02-11T01:29:08.541Z,63.20
2018-02-11T01:31:36.881Z,63.20
2018-02-11T01:34:04.428Z,63.20
2018-02-11T01:36:31.974Z,63.20
2018-02-11T01:38:59.881Z,63.20
2018-02-11T01:41:27.493Z,63.30
2018-02-11T01:43:55.804Z,63.10
2018-02-11T01:46:23.353Z,63.10
2018-02-11T01:48:50.913Z,63.20
2018-02-11T01:51:19.248Z,63.30
2018-02-11T01:53:46.801Z,63.30
2018-02-11T01:56:14.369Z,63.30
2018-02-11T01:58:42.018Z,63.30
2018-02-11T02:01:09.559Z,64.00
2018-02-11T02:03:37.903Z,63.30
2018-02-11T02:06:05.460Z,63.30
2018-02-11T02:08:33.009Z,63.00
2018-02-11T02:11:00.582Z,62.90
2018-02-11T02:13:28.121Z,62.70
2018-02-11T02:15:55.683Z,62.70
2018-02-11T02:18:23.231Z,62.80
2018-02-11T02:20:51.544Z,62.80
2018-02-11T02:23:19.115Z,62.80
2018-02-11T02:25:46.655Z,62.60
2018-02-11T02:28:14.212Z,63.40
2018-02-11T02:30:42.516Z,62.50
2018-02-11T02:33:10.078Z,62.50
2018-02-11T02:35:37.621Z,62.50
2018-02-11T02:38:05.197Z,62.50
2018-02-11T02:40:33.525Z,62.40
2018-02-11T02:43:01.078Z,62.50
2018-02-11T02:45:28.632Z,62.60
2018-02-11T02:47:56.181Z,62.40
2018-02-11T02:50:23.734Z,62.40
2018-02-11T02:52:52.058Z,62.60
2018-02-11T02:55:19.608Z,62.50
2018-02-11T02:57:47.170Z,62.60
2018-02-11T03:00:14.724Z,62.50
2018-02-11T03:02:42.267Z,62.60
2018-02-11T03:05:10.596Z,62.50
2018-02-11T03:07:38.138Z,62.50
2018-02-11T03:10:05.745Z,62.50
2018-02-11T03:12:33.284Z,62.50
2018-02-11T03:15:00.885Z,62.60
2018-02-11T03:17:28.620Z,62.50
2018-02-11T03:19:56.156Z,62.40
2018-02-11T03:22:24.479Z,62.40
2018-02-11T03:24:52.029Z,62.40
2018-02-11T03:27:19.579Z,62.40
2018-02-11T03:29:47.903Z,62.40
2018-02-11T03:32:15.461Z,62.40
2018-02-11T03:34:43.044Z,62.40
2018-02-11T03:37:10.721Z,62.30
2018-02-11T03:39:38.258Z,62.30
2018-02-11T03:42:05.816Z,62.40
2018-02-11T03:44:33.461Z,62.30
2018-02-11T03:47:01.011Z,62.40
2018-02-11T03:49:29.610Z,62.40
2018-02-11T03:51:57.923Z,62.40
2018-02-11T03:54:25.480Z,62.30
2018-02-11T03:56:53.025Z,62.20
2018-02-11T03:59:20.577Z,62.30
2018-02-11T04:01:48.903Z,62.40
2018-02-11T04:04:16.475Z,62.40
2018-02-11T04:06:44.033Z,62.50
2018-02-11T04:09:11.587Z,63.20
2018-02-11T04:11:39.148Z,62.60
2018-02-11T04:14:06.695Z,62.40
2018-02-11T04:16:35.013Z,62.50
2018-02-11T04:19:02.564Z,62.50
2018-02-11T04:21:30.233Z,62.60
2018-02-11T04:23:57.800Z,62.50
2018-02-11T04:26:25.364Z,62.50
2018-02-11T04:28:53.019Z,62.50
2018-02-11T04:31:20.581Z,62.60
2018-02-11T04:33:48.156Z,62.60
2018-02-11T04:36:15.913Z,62.40
2018-02-11T04:38:44.224Z,62.40
2018-02-11T04:41:11.785Z,62.40
2018-02-11T04:43:39.319Z,62.50
2018-02-11T04:46:07.732Z,62.50
2018-02-11T04:48:35.297Z,62.50
2018-02-11T04:51:02.925Z,62.50
2018-02-11T04:53:31.322Z,62.70
2018-02-11T04:55:59.624Z,62.50
2018-02-11T04:58:27.181Z,62.50
2018-02-11T05:00:54.732Z,62.50
2018-02-11T05:03:23.092Z,62.50
2018-02-11T05:05:50.653Z,62.50
2018-02-11T05:08:18.220Z,62.20
2018-02-11T05:10:45.766Z,62.20
2018-02-11T05:13:13.316Z,62.20
2018-02-11T05:15:40.902Z,62.30
2018-02-11T05:18:08.759Z,62.10
2018-02-11T05:20:36.306Z,62.00
2018-02-11T05:23:03.856Z,62.20
2018-02-11T05:25:31.419Z,62.10
2018-02-11T05:27:58.998Z,62.30
2018-02-11T05:30:26.552Z,62.10
2018-02-11T05:32:54.121Z,62.10
2018-02-11T05:35:22.512Z,62.00
2018-02-11T05:37:50.902Z,62.10
2018-02-11T05:40:18.462Z,62.00
2018-02-11T05:42:46.005Z,62.00
2018-02-11T05:45:14.308Z,61.90
2018-02-11T05:47:41.862Z,61.90
2018-02-11T05:50:10.181Z,62.10
2018-02-11T05:52:37.831Z,62.00
2018-02-11T05:55:05.785Z,62.30
2018-02-11T05:57:34.129Z,62.20
2018-02-11T06:00:01.675Z,62.20
2018-02-11T06:02:29.507Z,61.90
2018-02-11T06:04:57.060Z,62.30
2018-02-11T06:07:25.396Z,62.00
2018-02-11T06:09:52.955Z,62.00
2018-02-11T06:12:20.532Z,62.10
2018-02-11T06:14:48.068Z,62.20
2018-02-11T06:17:15.639Z,62.20
2018-02-11T06:19:43.213Z,62.20
2018-02-11T06:22:10.816Z,62.10
2018-02-11T06:24:38.380Z,62.20
2018-02-11T06:27:05.949Z,62.30
2018-02-11T06:29:33.522Z,62.20
2018-02-11T06:32:01.918Z,62.70
2018-02-11T06:34:30.233Z,62.90
2018-02-11T06:36:57.784Z,62.90
2018-02-11T06:39:25.365Z,62.50
2018-02-11T06:41:52.911Z,62.20
2018-02-11T06:44:20.482Z,62.00
2018-02-11T06:46:48.058Z,62.10
2018-02-11T06:49:15.724Z,62.00
2018-02-11T06:51:43.288Z,62.50
2018-02-11T06:54:11.082Z,62.90
2018-02-11T06:56:38.633Z,63.50
2018-02-11T06:59:06.200Z,63.20
2018-02-11T07:01:33.743Z,63.20
2018-02-11T07:04:01.287Z,63.20
2018-02-11T07:06:29.999Z,64.60
2018-02-11T07:08:58.317Z,64.30
2018-02-11T07:11:25.875Z,64.30
2018-02-11T07:13:53.418Z,64.30
2018-02-11T07:16:20.975Z,64.10
2018-02-11T07:18:49.311Z,63.10
2018-02-11T07:21:16.976Z,63.10
2018-02-11T07:23:44.534Z,62.60
2018-02-11T07:26:12.219Z,61.90
2018-02-11T07:28:39.780Z,61.90
2018-02-11T07:31:07.335Z,60.80
2018-02-11T07:33:34.874Z,60.10
2018-02-11T07:36:02.446Z,59.50
2018-02-11T07:38:30.050Z,58.90
2018-02-11T07:40:57.611Z,58.30
2018-02-11T07:43:25.156Z,57.30
2018-02-11T07:45:52.708Z,56.40
2018-02-11T07:48:20.254Z,55.40
2018-02-11T07:50:47.872Z,54.30
2018-02-11T07:53:15.405Z,53.60
2018-02-11T07:55:43.046Z,53.00
2018-02-11T07:58:11.364Z,52.10
2018-02-11T08:00:38.908Z,52.00
2018-02-11T08:03:06.485Z,52.40
2018-02-11T08:05:34.041Z,52.40
2018-02-11T08:08:02.372Z,52.30
2018-02-11T08:10:29.913Z,52.30
2018-02-11T08:12:57.512Z,52.30
2018-02-11T08:15:25.064Z,52.10
2018-02-11T08:17:53.376Z,52.50
2018-02-11T08:20:21.708Z,52.60
2018-02-11T08:22:49.288Z,52.60
2018-02-11T08:25:16.927Z,53.00
2018-02-11T08:27:44.482Z,53.40
2018-02-11T08:30:12.056Z,53.70
2018-02-11T08:32:39.622Z,54.00
2018-02-11T08:35:07.226Z,54.50
2018-02-11T08:37:34.729Z,54.80
2018-02-11T08:40:03.062Z,55.40
2018-02-11T08:42:30.628Z,55.40
2018-02-11T08:44:58.202Z,55.80
2018-02-11T08:47:25.765Z,56.10
2018-02-11T08:49:53.318Z,56.40
2018-02-11T08:52:20.866Z,56.50
2018-02-11T08:54:48.444Z,56.70
2018-02-11T08:57:15.992Z,57.00
2018-02-11T08:59:43.554Z,56.60
2018-02-11T09:02:11.147Z,57.20
2018-02-11T09:04:38.700Z,57.50
2018-02-11T09:07:06.377Z,57.80
2018-02-11T09:09:33.925Z,57.70
2018-02-11T09:12:01.481Z,57.60
2018-02-11T09:14:29.154Z,57.70
2018-02-11T09:16:56.703Z,56.10
2018-02-11T09:19:25.024Z,52.80
2018-02-11T09:21:52.598Z,52.70
2018-02-11T09:24:20.171Z,51.60
2018-02-11T09:26:47.705Z,50.50
2018-02-11T09:29:15.276Z,49.40
2018-02-11T09:31:42.833Z,48.70
2018-02-11T09:34:10.409Z,48.00
2018-02-11T09:36:37.956Z,47.80
2018-02-11T09:39:05.547Z,47.50
2018-02-11T09:41:33.112Z,47.00
2018-02-11T09:44:00.664Z,46.70
2018-02-11T09:46:28.396Z,46.50
2018-02-11T09:48:56.721Z,46.40
2018-02-11T09:51:24.296Z,46.40
2018-02-11T09:53:51.857Z,45.90
2018-02-11T09:56:19.429Z,45.90
2018-02-11T09:58:47.026Z,45.60
2018-02-11T10:01:14.589Z,45.50
2018-02-11T10:03:43.710Z,44.40
2018-02-11T10:06:12.122Z,44.30
2018-02-11T10:08:40.460Z,44.10
2018-02-11T10:11:08.111Z,44.10
2018-02-11T10:13:35.776Z,43.90
2018-02-11T10:16:03.392Z,43.50
2018-02-11T10:18:31.719Z,43.70
2018-02-11T10:21:01.096Z,43.30
2018-02-11T10:23:29.054Z,43.30
2018-02-11T10:25:57.407Z,43.00
2018-02-11T10:28:24.966Z,43.00
2018-02-11T10:30:52.551Z,42.80
2018-02-11T10:33:20.178Z,42.60
2018-02-11T10:35:47.732Z,42.40
2018-02-11T10:38:15.311Z,42.10
2018-02-11T10:40:42.882Z,42.10
2018-02-11T10:43:10.520Z,42.20
2018-02-11T10:45:38.439Z,42.30
2018-02-11T10:48:06.013Z,42.50
2018-02-11T10:50:33.578Z,42.60
2018-02-11T10:53:01.486Z,43.00
2018-02-11T10:55:29.816Z,43.90
2018-02-11T10:57:57.383Z,43.90
2018-02-11T11:00:25.067Z,44.40
2018-02-11T11:02:52.631Z,44.70
2018-02-11T11:05:20.315Z,44.80
2018-02-11T11:07:47.935Z,45.00
2018-02-11T11:10:15.509Z,44.60
2018-02-11T11:12:43.083Z,44.70
2018-02-11T11:15:10.662Z,44.30
2018-02-11T11:17:38.261Z,44.00
2018-02-11T11:20:06.598Z,43.70
2018-02-11T11:22:34.432Z,43.70
2018-02-11T11:25:01.991Z,43.50
2018-02-11T11:27:29.596Z,43.70
2018-02-11T11:29:57.160Z,44.10
2018-02-11T11:32:24.718Z,43.80
2018-02-11T11:34:53.121Z,43.70
2018-02-11T11:37:20.694Z,44.00
2018-02-11T11:39:48.277Z,44.20
2018-02-11T11:42:17.542Z,44.60
2018-02-11T11:44:45.097Z,44.60
2018-02-11T11:47:12.669Z,44.60
2018-02-11T11:49:40.325Z,45.00
2018-02-11T11:52:08.281Z,44.80
2018-02-11T11:54:36.655Z,43.80
2018-02-11T11:57:05.194Z,43.60
2018-02-11T11:59:33.476Z,43.80
2018-02-11T12:02:01.073Z,43.80
2018-02-11T12:04:29.428Z,44.50
2018-02-11T12:06:57.058Z,44.60
2018-02-11T12:09:24.625Z,45.30
2018-02-11T12:11:52.600Z,45.40
2018-02-11T12:14:20.182Z,45.20
2018-02-11T12:16:47.768Z,44.80
2018-02-11T12:19:15.412Z,44.50
2018-02-11T12:21:42.974Z,44.50
2018-02-11T12:24:10.517Z,44.60
2018-02-11T12:26:38.858Z,44.50
2018-02-11T12:29:06.405Z,44.50
2018-02-11T12:31:33.965Z,44.40
2018-02-11T12:34:01.548Z,44.50
2018-02-11T12:36:29.095Z,44.40
2018-02-11T12:38:56.665Z,44.60
2018-02-11T12:41:24.244Z,44.50
2018-02-11T12:43:51.822Z,44.30
2018-02-11T12:46:19.405Z,44.40
2018-02-11T12:48:46.960Z,44.40
2018-02-11T12:51:14.532Z,44.60
2018-02-11T12:53:42.122Z,45.00
2018-02-11T12:56:10.436Z,45.80
2018-02-11T12:58:38.076Z,45.70
2018-02-11T13:01:05.722Z,46.10
2018-02-11T13:03:34.041Z,47.60
2018-02-11T13:06:01.614Z,47.00
2018-02-11T13:08:29.164Z,47.70
2018-02-11T13:10:56.862Z,48.10
2018-02-11T13:13:24.412Z,48.80
2018-02-11T13:15:51.977Z,50.10
2018-02-11T13:18:19.562Z,49.60
2018-02-11T13:20:47.116Z,50.20
2018-02-11T13:23:15.070Z,49.80
2018-02-11T13:25:43.546Z,48.80
2018-02-11T13:28:11.104Z,48.80
2018-02-11T13:30:39.501Z,48.30
2018-02-11T13:33:07.063Z,48.30
2018-02-11T13:35:35.466Z,48.00
2018-02-11T13:38:03.741Z,48.40
2018-02-11T13:40:31.307Z,48.30
2018-02-11T13:42:58.876Z,48.20
2018-02-11T13:45:26.425Z,47.80
2018-02-11T13:47:54.040Z,47.70
2018-02-11T13:50:21.639Z,47.70
2018-02-11T13:52:49.201Z,47.80
2018-02-11T13:55:16.778Z,47.90
2018-02-11T13:57:44.346Z,47.70
2018-02-11T14:00:12.197Z,47.60
2018-02-11T14:02:39.748Z,47.70
2018-02-11T14:05:08.122Z,47.40
2018-02-11T14:07:35.677Z,48.10
2018-02-11T14:10:03.216Z,47.70
2018-02-11T14:12:30.788Z,47.70
2018-02-11T14:14:58.453Z,48.00
2018-02-11T14:17:26.003Z,48.10
2018-02-11T14:19:54.337Z,48.00
2018-02-11T14:22:22.820Z,48.10
2018-02-11T14:24:50.755Z,48.30
2018-02-11T14:27:18.303Z,48.60
2018-02-11T14:29:46.655Z,48.80
2018-02-11T14:32:15.000Z,49.00
2018-02-11T14:34:42.562Z,49.00
2018-02-11T14:37:10.135Z,49.20
2018-02-11T14:39:37.690Z,49.20
2018-02-11T14:42:05.341Z,49.00
2018-02-11T14:44:32.905Z,49.30
2018-02-11T14:47:01.247Z,49.50
2018-02-11T14:49:29.649Z,49.70
2018-02-11T14:51:57.228Z,49.70
2018-02-11T14:54:25.540Z,50.30
2018-02-11T14:56:53.093Z,50.30
2018-02-11T14:59:20.651Z,49.30
2018-02-11T15:01:49.022Z,42.70
2018-02-11T15:04:17.408Z,45.60
2018-02-11T15:06:45.002Z,44.90
2018-02-11T15:09:12.562Z,47.70
2018-02-11T15:11:40.127Z,49.20
2018-02-11T15:14:07.724Z,50.20
2018-02-11T15:16:35.318Z,50.80
2018-02-11T15:19:02.998Z,51.30
2018-02-11T15:21:30.555Z,51.60
2018-02-11T15:23:58.138Z,52.30
2018-02-11T15:26:26.736Z,52.60
2018-02-11T15:28:55.062Z,52.00
2018-02-11T15:31:22.625Z,52.00
2018-02-11T15:33:50.174Z,51.30
2018-02-11T15:36:17.795Z,50.70
2018-02-11T15:38:45.360Z,50.20
2018-02-11T15:41:12.929Z,50.50
2018-02-11T15:43:40.542Z,50.60
2018-02-11T15:46:08.098Z,50.10
2018-02-11T15:48:35.665Z,49.80
2018-02-11T15:51:03.273Z,49.80
2018-02-11T15:53:30.832Z,50.30
2018-02-11T15:55:58.443Z,49.30
2018-02-11T15:58:26.773Z,49.50
2018-02-11T16:00:54.333Z,49.40
2018-02-11T16:03:21.920Z,49.50
2018-02-11T16:05:49.511Z,49.10
2018-02-11T16:08:17.066Z,47.60
2018-02-11T16:10:44.649Z,47.80
2018-02-11T16:13:13.019Z,48.40
2018-02-11T16:15:40.571Z,48.40
2018-02-11T16:18:08.134Z,48.60
2018-02-11T16:20:35.704Z,48.60
2018-02-11T16:23:03.304Z,48.70
2018-02-11T16:25:32.017Z,48.70
2018-02-11T16:27:59.583Z,48.70
2018-02-11T16:30:27.256Z,49.20
2018-02-11T16:32:54.849Z,49.30
2018-02-11T16:35:22.405Z,48.90
2018-02-11T16:37:49.969Z,48.70
2018-02-11T16:40:17.545Z,48.70
2018-02-11T16:42:45.895Z,48.30
2018-02-11T16:45:13.478Z,48.40
2018-02-11T16:47:41.050Z,48.40
2018-02-11T16:50:08.615Z,48.70
2018-02-11T16:52:36.172Z,48.80
2018-02-11T16:55:03.752Z,49.00
2018-02-11T16:57:31.356Z,49.20
2018-02-11T16:59:58.927Z,49.80
2018-02-11T17:02:27.283Z,50.30
2018-02-11T17:04:54.851Z,50.20
2018-02-11T17:07:22.450Z,50.30
2018-02-11T17:09:50.786Z,50.10
2018-02-11T17:12:18.329Z,50.10
2018-02-11T17:14:45.897Z,49.50
2018-02-11T17:17:13.443Z,49.00
2018-02-11T17:19:41.041Z,48.70
2018-02-11T17:22:08.591Z,48.30
2018-02-11T17:24:36.161Z,47.70
2018-02-11T17:27:03.730Z,47.50
2018-02-11T17:29:31.336Z,46.90
2018-02-11T17:31:58.911Z,46.30
2018-02-11T17:34:26.460Z,46.00
2018-02-11T17:36:54.000Z,45.50
2018-02-11T17:39:21.553Z,45.20
2018-02-11T17:41:49.117Z,45.00
2018-02-11T17:44:16.711Z,44.80
2018-02-11T17:46:44.270Z,44.80
2018-02-11T17:49:11.875Z,44.90
2018-02-11T17:51:39.445Z,44.80
2018-02-11T17:54:07.121Z,44.50
2018-02-11T17:56:35.501Z,44.70
2018-02-11T17:59:03.938Z,44.80
2018-02-11T18:01:31.534Z,44.70
2018-02-11T18:03:59.097Z,37.80
2018-02-11T18:06:26.662Z,36.90
2018-02-11T18:08:54.577Z,38.10
2018-02-11T18:11:22.144Z,44.40
2018-02-11T18:13:50.481Z,45.70
2018-02-11T18:16:18.057Z,45.70
2018-02-11T18:18:45.632Z,45.80
2018-02-11T18:21:14.147Z,46.30
2018-02-11T18:23:41.711Z,46.00
2018-02-11T18:26:09.283Z,46.30
2018-02-11T18:28:36.835Z,46.30
2018-02-11T18:31:05.177Z,46.10
2018-02-11T18:33:32.806Z,46.00
2018-02-11T18:36:00.368Z,45.70
2018-02-11T18:38:27.936Z,46.20
2018-02-11T18:40:56.369Z,46.40
2018-02-11T18:43:23.933Z,46.30
2018-02-11T18:45:51.521Z,46.50
2018-02-11T18:48:20.933Z,46.90
2018-02-11T18:50:49.283Z,46.90
2018-02-11T18:53:16.837Z,46.80
2018-02-11T18:55:44.403Z,46.80
2018-02-11T18:58:12.067Z,46.90
2018-02-11T19:00:39.630Z,47.00
2018-02-11T19:03:07.185Z,47.20
2018-02-11T19:05:34.730Z,47.60
2018-02-11T19:08:02.284Z,48.10
2018-02-11T19:10:29.962Z,48.90
2018-02-11T19:12:57.548Z,48.90
2018-02-11T19:15:25.122Z,49.00
2018-02-11T19:17:52.677Z,49.10
2018-02-11T19:20:20.272Z,48.70
2018-02-11T19:22:47.900Z,48.20
2018-02-11T19:25:15.487Z,47.90
2018-02-11T19:27:43.137Z,47.80
2018-02-11T19:30:10.730Z,47.80
2018-02-11T19:32:38.296Z,47.40
2018-02-11T19:35:05.872Z,47.40
2018-02-11T19:37:33.530Z,47.40
2018-02-11T19:40:01.164Z,47.90
2018-02-11T19:42:28.816Z,46.60
2018-02-11T19:44:56.372Z,46.60
2018-02-11T19:47:24.723Z,46.90
2018-02-11T19:49:52.334Z,46.90
2018-02-11T19:52:19.920Z,46.70
2018-02-11T19:54:47.499Z,46.40
2018-02-11T19:57:15.067Z,46.10
2018-02-11T19:59:42.672Z,46.00
2018-02-11T20:02:10.988Z,45.40
2018-02-11T20:04:38.571Z,45.40
2018-02-11T20:07:06.250Z,45.20
2018-02-11T20:09:33.825Z,45.20
2018-02-11T20:12:01.591Z,45.40
2018-02-11T20:14:29.152Z,45.50
2018-02-11T20:16:56.744Z,45.90
2018-02-11T20:19:24.317Z,46.50
2018-02-11T20:21:51.913Z,46.80
2018-02-11T20:24:20.240Z,46.20
2018-02-11T20:26:47.819Z,46.20
2018-02-11T20:29:15.364Z,45.80
2018-02-11T20:31:42.953Z,45.90
2018-02-11T20:34:11.303Z,45.90
2018-02-11T20:36:39.352Z,45.90
2018-02-11T20:39:06.943Z,45.90
2018-02-11T20:41:34.530Z,46.40
2018-02-11T20:44:02.140Z,47.00
2018-02-11T20:46:30.490Z,48.00
2018-02-11T20:48:58.127Z,48.00
2018-02-11T20:51:25.734Z,48.40
2018-02-11T20:53:53.365Z,48.90
2018-02-11T20:56:20.947Z,49.40
2018-02-11T20:58:48.548Z,49.60
2018-02-11T21:01:16.135Z,50.10
2018-02-11T21:03:43.867Z,50.70
2018-02-11T21:06:11.481Z,51.30
2018-02-11T21:08:39.075Z,51.80
2018-02-11T21:11:06.633Z,52.20
2018-02-11T21:13:34.574Z,52.80
2018-02-11T21:16:02.160Z,53.30
2018-02-11T21:18:29.809Z,53.70
2018-02-11T21:20:57.384Z,54.20
2018-02-11T21:23:24.995Z,54.50
2018-02-11T21:25:52.594Z,54.70
2018-02-11T21:28:20.919Z,55.40
2018-02-11T21:30:48.484Z,55.40
2018-02-11T21:33:16.189Z,55.60
2018-02-11T21:35:44.508Z,56.20
2018-02-11T21:38:12.085Z,56.30
2018-02-11T21:40:39.647Z,56.60
2018-02-11T21:43:07.294Z,56.80
2018-02-11T21:45:35.643Z,57.30
2018-02-11T21:48:03.197Z,57.20
2018-02-11T21:50:30.782Z,57.40
2018-02-11T21:52:58.354Z,57.60
2018-02-11T21:55:25.905Z,57.80
2018-02-11T21:57:54.406Z,58.10
2018-02-11T22:00:21.953Z,58.30
2018-02-11T22:02:49.529Z,58.40
2018-02-11T22:05:17.084Z,58.60
2018-02-11T22:07:44.644Z,58.70
2018-02-11T22:10:12.286Z,58.80
2018-02-11T22:12:40.764Z,59.00
2018-02-11T22:15:08.347Z,59.20
2018-02-11T22:17:35.894Z,59.50
2018-02-11T22:20:03.477Z,59.50
2018-02-11T22:22:31.031Z,59.60
2018-02-11T22:24:58.596Z,59.80
2018-02-11T22:27:26.172Z,59.90
2018-02-11T22:29:53.735Z,60.00
2018-02-11T22:32:21.296Z,60.10
2018-02-11T22:34:48.854Z,60.30
2018-02-11T22:37:16.445Z,60.40
2018-02-11T22:39:44.003Z,60.50
2018-02-11T22:42:11.564Z,60.80
2018-02-11T22:44:39.118Z,61.40
2018-02-11T22:47:06.708Z,62.30
2018-02-11T22:49:34.268Z,62.30
2018-02-11T22:52:01.841Z,63.20
2018-02-11T22:54:29.401Z,62.50
2018-02-11T22:56:56.968Z,62.20
2018-02-11T22:59:24.516Z,61.90
2018-02-11T23:01:52.080Z,61.90
2018-02-11T23:04:19.654Z,61.60
2018-02-11T23:06:47.207Z,61.60
2018-02-11T23:09:14.779Z,61.40
2018-02-11T23:11:42.324Z,61.40
2018-02-11T23:14:10.649Z,61.30
2018-02-11T23:16:38.220Z,61.30
2018-02-11T23:19:05.775Z,61.30
2018-02-11T23:21:33.351Z,61.30
2018-02-11T23:24:00.928Z,61.20
2018-02-11T23:26:28.501Z,61.30
2018-02-11T23:28:56.063Z,61.20
2018-02-11T23:31:23.785Z,61.30
2018-02-11T23:33:51.329Z,61.40
2018-02-11T23:36:19.635Z,61.50
2018-02-11T23:38:47.225Z,61.50
2018-02-11T23:41:15.158Z,61.40
2018-02-11T23:43:43.478Z,61.40
2018-02-11T23:46:11.039Z,61.50
2018-02-11T23:48:38.590Z,61.40
2018-02-11T23:51:06.141Z,61.40
2018-02-11T23:53:33.714Z,61.40
2018-02-11T23:56:01.382Z,61.50
2018-02-11T23:58:28.950Z,61.60
